Xun Long 5 — BYGW — position and weather

sailwx.info

Track history (hours):
 
Tides and Currents Weather Stations Pressure Air Temp Water Temp Dewpoint Dewpoint Depression Visibility Wind Speed Wind Dir Waves Ship Positions

Xun Long 5

Last reported at 2016-May-01 11:24 UTC. Time now 2016-May-01 23:15 UTC.
Position N 22°11' E 113°39'.

Length 34 m; draft 1.4 m.

Type: High speed craft. MMSI: 413471870.

Date/timePositionNaut miles runAvg speedWind from/ knotsBaromVisibWave heightAir tempDewpointWater temp
2016-May-01 11:24N 22°11' E 113°39'2 2.8
2016-May-01 10:33N 22°11' E 113°36'2 1.0
2016-May-01 08:25N 22°12' E 113°39'2 2.2
2016-May-01 07:33N 22°13' E 113°40'2411.7
2016-May-01 05:29N 22°20' E 114°05'28 8.7
2016-May-01 02:19N 22°10' E 113°37'30 0.7
2016-Apr-29 07:34N 22°17' E 114°09'0 0.0
2016-Apr-29 03:34N 22°17' E 114°09'5 2.1
2016-Apr-29 01:15N 22°20' E 114°05'1 1.4
2016-Apr-29 00:34N 22°19' E 114°05'23 1.7
2016-Apr-28 11:30N 22°13' E 113°42'3 3.0
2016-Apr-28 10:33N 22°12' E 113°39'11 4.9
2016-Apr-28 08:18N 22°19' E 113°48'14 3.4
2016-Apr-28 04:13N 22°10' E 113°37'4 1.3
2016-Apr-28 01:22N 22°12' E 113°34'28 1.9
2016-Apr-27 10:27N 22°21' E 114°02'4 4.1
2016-Apr-27 09:33N 22°19' E 114°06'4 1.8
2016-Apr-27 07:33N 22°17' E 114°09'0 0.0
2016-Apr-27 03:34N 22°17' E 114°09'8 3.6
2016-Apr-27 01:29N 22°21' E 114°02'3 2.8
2016-Apr-27 00:33N 22°20' E 114°05'28 2.1
2016-Apr-26 11:16N 22°11' E 113°36'1 1.5
2016-Apr-26 10:32N 22°11' E 113°37'13 3.3
2016-Apr-26 06:30N 22°19' E 113°47'13 5.6
2016-Apr-26 04:09N 22°10' E 113°37'4 1.4
2016-Apr-26 01:25N 22°12' E 113°34'28 1.9
2016-Apr-25 10:25N 22°21' E 114°02'6 7.0
2016-Apr-25 09:34N 22°19' E 114°08'2 0.8
2016-Apr-25 07:33N 22°17' E 114°09'0 0.0
2016-Apr-25 03:33N 22°17' E 114°09'6 2.8
2016-Apr-25 01:25N 22°21' E 114°04'1 1.4
2016-Apr-25 00:33N 22°21' E 114°03'25 1.9
2016-Apr-24 11:17N 22°12' E 113°39'2 2.5
2016-Apr-24 10:27N 22°11' E 113°36'14 6.5
2016-Apr-24 08:22N 22°19' E 113°48'1310.2
2016-Apr-24 07:03N 22°10' E 113°37'1326.1
2016-Apr-24 06:33N 22°19' E 113°47'14 5.9
2016-Apr-24 04:16N 22°10' E 113°37'3 1.2
2016-Apr-24 01:29N 22°12' E 113°34'0 0.0
2016-Apr-23 11:32N 22°12' E 113°34'1414.6
2016-Apr-23 10:33N 22°19' E 113°47'13 2.1
2016-Apr-23 04:10N 22°10' E 113°37'3 1.2
2016-Apr-23 01:28N 22°12' E 113°34'1 0.0
2016-Apr-22 11:12N 22°11' E 113°34'3 5.0
2016-Apr-22 10:33N 22°11' E 113°38'12 5.2
2016-Apr-22 08:14N 22°19' E 113°48'1520.0
2016-Apr-22 07:29N 22°10' E 113°35'2 0.5
2016-Apr-22 04:26N 22°10' E 113°36'14 7.5
2016-Apr-22 02:33N 22°19' E 113°48'1514.3
2016-Apr-22 01:30N 22°12' E 113°34'  
Track history (hours):
 
Tides and Currents Weather Stations Pressure Air Temp Water Temp Dewpoint Dewpoint Depression Visibility Wind Speed Wind Dir Waves Ship Positions

Xun Long 5

Last reported at 2016-May-01 11:24 UTC. Time now 2016-May-01 23:15 UTC.
Position N 22°11' E 113°39'.

Length 34 m; draft 1.4 m.

Type: High speed craft. MMSI: 413471870.

Date/timePositionNaut miles runAvg speedWind from/ knotsBaromVisibWave heightAir tempDewpointWater temp
2016-May-01 11:24N 22°11' E 113°39'2 2.8
2016-May-01 10:33N 22°11' E 113°36'2 1.0
2016-May-01 08:25N 22°12' E 113°39'2 2.2
2016-May-01 07:33N 22°13' E 113°40'2411.7
2016-May-01 05:29N 22°20' E 114°05'28 8.7
2016-May-01 02:19N 22°10' E 113°37'30 0.7
2016-Apr-29 07:34N 22°17' E 114°09'0 0.0
2016-Apr-29 03:34N 22°17' E 114°09'5 2.1
2016-Apr-29 01:15N 22°20' E 114°05'1 1.4
2016-Apr-29 00:34N 22°19' E 114°05'23 1.7
2016-Apr-28 11:30N 22°13' E 113°42'3 3.0
2016-Apr-28 10:33N 22°12' E 113°39'11 4.9
2016-Apr-28 08:18N 22°19' E 113°48'14 3.4
2016-Apr-28 04:13N 22°10' E 113°37'4 1.3
2016-Apr-28 01:22N 22°12' E 113°34'28 1.9
2016-Apr-27 10:27N 22°21' E 114°02'4 4.1
2016-Apr-27 09:33N 22°19' E 114°06'4 1.8
2016-Apr-27 07:33N 22°17' E 114°09'0 0.0
2016-Apr-27 03:34N 22°17' E 114°09'8 3.6
2016-Apr-27 01:29N 22°21' E 114°02'3 2.8
2016-Apr-27 00:33N 22°20' E 114°05'28 2.1
2016-Apr-26 11:16N 22°11' E 113°36'1 1.5
2016-Apr-26 10:32N 22°11' E 113°37'13 3.3
2016-Apr-26 06:30N 22°19' E 113°47'13 5.6
2016-Apr-26 04:09N 22°10' E 113°37'4 1.4
2016-Apr-26 01:25N 22°12' E 113°34'28 1.9
2016-Apr-25 10:25N 22°21' E 114°02'6 7.0
2016-Apr-25 09:34N 22°19' E 114°08'2 0.8
2016-Apr-25 07:33N 22°17' E 114°09'0 0.0
2016-Apr-25 03:33N 22°17' E 114°09'6 2.8
2016-Apr-25 01:25N 22°21' E 114°04'1 1.4
2016-Apr-25 00:33N 22°21' E 114°03'25 1.9
2016-Apr-24 11:17N 22°12' E 113°39'2 2.5
2016-Apr-24 10:27N 22°11' E 113°36'14 6.5
2016-Apr-24 08:22N 22°19' E 113°48'1310.2
2016-Apr-24 07:03N 22°10' E 113°37'1326.1
2016-Apr-24 06:33N 22°19' E 113°47'14 5.9
2016-Apr-24 04:16N 22°10' E 113°37'3 1.2
2016-Apr-24 01:29N 22°12' E 113°34'0 0.0
2016-Apr-23 11:32N 22°12' E 113°34'1414.6
2016-Apr-23 10:33N 22°19' E 113°47'13 2.1
2016-Apr-23 04:10N 22°10' E 113°37'3 1.2
2016-Apr-23 01:28N 22°12' E 113°34'1 0.0
2016-Apr-22 11:12N 22°11' E 113°34'3 5.0
2016-Apr-22 10:33N 22°11' E 113°38'12 5.2
2016-Apr-22 08:14N 22°19' E 113°48'1520.0
2016-Apr-22 07:29N 22°10' E 113°35'2 0.5
2016-Apr-22 04:26N 22°10' E 113°36'14 7.5
2016-Apr-22 02:33N 22°19' E 113°48'1514.3
2016-Apr-22 01:30N 22°12' E 113°34'  

Dump ship's entire track history